Time;durP1;ratioP1;P1;durP2;ratioP2;P2;SDS_P1;SDS_P2;PMS_P1;PMS_P2;Temp;Humidity;BMP_temperature;BMP_pressure;BME280_temperature;BME280_humidity;BME280_pressure;Samples;Min_cycle;Max_cycle;Signal;HPM_P1;HPM_P2
2021/11/24 00:02:21;;;;;;;42.70;38.60;;;;;;;5.69;78.86;101342.23;109113;1275;21966;-74
2021/11/24 00:04:50;;;;;;;42.40;38.10;;;;;;;5.69;78.86;101337.02;108865;1276;23026;-75
2021/11/24 00:07:19;;;;;;;44.20;39.40;;;;;;;5.68;78.73;101337.77;108874;1275;22060;-74
2021/11/24 00:09:48;;;;;;;47.10;42.30;;;;;;;5.69;78.88;101336.13;108476;1281;22157;-74
2021/11/24 00:12:17;;;;;;;46.90;42.00;;;;;;;5.67;78.75;101336.05;108709;1281;21989;-75
2021/11/24 00:14:47;;;;;;;46.30;41.30;;;;;;;5.63;78.83;101335.82;108470;1281;22021;-74
2021/11/24 00:17:16;;;;;;;45.60;40.90;;;;;;;5.63;78.91;101333.92;108542;1281;21996;-74
2021/11/24 00:19:46;;;;;;;46.80;41.70;;;;;;;5.65;78.97;101335.32;108485;1281;22214;-75
2021/11/24 00:22:18;;;;;;;45.70;40.80;;;;;;;5.68;79.09;101338.42;108715;1280;22018;-74
2021/11/24 00:24:49;;;;;;;44.60;40.10;;;;;;;5.72;79.16;101334.48;108691;1281;21984;-74
2021/11/24 00:27:18;;;;;;;44.70;39.70;;;;;;;5.74;79.09;101329.48;108784;1275;21994;-75
2021/11/24 00:29:49;;;;;;;44.40;40.00;;;;;;;5.77;79.20;101327.98;108914;1275;23602;-76
2021/11/24 00:32:21;;;;;;;43.80;39.40;;;;;;;5.80;79.03;101327.61;109179;1275;21974;-74
2021/11/24 00:34:50;;;;;;;43.20;38.80;;;;;;;5.81;79.02;101328.55;108834;1278;22795;-74
2021/11/24 00:37:19;;;;;;;42.90;38.60;;;;;;;5.83;78.85;101330.17;109084;1275;23023;-74
2021/11/24 00:39:49;;;;;;;44.40;39.60;;;;;;;5.83;78.77;101325.31;109096;1275;24307;-74
2021/11/24 00:42:18;;;;;;;41.20;36.20;;;;;;;5.84;78.89;101332.75;108929;1275;21978;-75
2021/11/24 00:44:47;;;;;;;42.50;38.40;;;;;;;5.84;78.87;101330.60;109084;1275;23598;-73
2021/11/24 00:47:17;;;;;;;41.70;37.50;;;;;;;5.86;78.87;101333.60;108943;1275;21974;-74
2021/11/24 00:49:46;;;;;;;40.80;36.80;;;;;;;5.87;78.85;101330.27;108920;1275;22287;-74
2021/11/24 00:52:17;;;;;;;41.00;36.90;;;;;;;5.86;78.63;101328.92;109059;1275;23106;-73
2021/11/24 00:54:47;;;;;;;41.20;37.00;;;;;;;5.84;78.71;101323.63;109085;1275;23049;-73
2021/11/24 00:57:16;;;;;;;42.20;37.50;;;;;;;5.84;78.82;101322.36;109052;1277;21985;-73
2021/11/24 00:59:45;;;;;;;41.00;36.80;;;;;;;5.87;78.84;101317.85;108997;1275;22020;-73
2021/11/24 01:02:14;;;;;;;41.40;37.30;;;;;;;5.86;78.68;101313.90;108871;1275;22383;-74
2021/11/24 01:04:43;;;;;;;40.90;36.70;;;;;;;5.86;78.65;101318.80;108555;1281;22651;-73
2021/11/24 01:07:13;;;;;;;40.20;36.30;;;;;;;5.84;78.65;101319.58;108495;1282;22022;-73
2021/11/24 01:09:43;;;;;;;40.70;36.70;;;;;;;5.85;78.76;101318.83;108370;1282;22009;-74
2021/11/24 01:12:12;;;;;;;39.70;35.80;;;;;;;5.85;78.84;101318.13;108475;1282;22002;-74
2021/11/24 01:14:41;;;;;;;42.90;38.50;;;;;;;5.86;78.77;101318.27;107935;1289;22015;-74
2021/11/24 01:17:10;;;;;;;41.40;37.40;;;;;;;5.87;78.74;101317.67;107957;1289;23634;-74
2021/11/24 01:19:40;;;;;;;40.30;36.30;;;;;;;5.86;78.80;101310.88;107673;1294;23745;-74
2021/11/24 01:22:09;;;;;;;41.50;37.50;;;;;;;5.87;78.82;101311.20;107427;1291;22926;-74
2021/11/24 01:24:39;;;;;;;40.40;36.40;;;;;;;5.87;78.80;101305.73;107879;1291;22041;-74
2021/11/24 01:27:08;;;;;;;39.50;35.60;;;;;;;5.88;78.65;101306.21;108022;1291;22054;-74
2021/11/24 01:29:37;;;;;;;38.90;35.00;;;;;;;5.89;78.76;101299.83;107987;1291;22135;-74
2021/11/24 01:32:08;;;;;;;38.60;35.00;;;;;;;5.90;78.66;101300.77;108048;1285;22023;-74
2021/11/24 01:34:41;;;;;;;38.20;34.40;;;;;;;5.89;78.56;101305.10;108420;1286;22676;-74
2021/11/24 01:37:10;;;;;;;37.10;33.50;;;;;;;5.87;78.55;101307.66;108045;1287;22006;-74
2021/11/24 01:39:39;;;;;;;39.10;34.90;;;;;;;5.86;78.48;101302.17;108224;1282;24028;-74
2021/11/24 01:42:10;;;;;;;37.10;33.50;;;;;;;5.85;78.46;101299.99;108663;1281;23043;-74
2021/11/24 01:44:39;;;;;;;37.10;33.40;;;;;;;5.84;78.55;101302.66;108462;1282;22291;-74
2021/11/24 01:47:08;;;;;;;35.60;32.20;;;;;;;5.84;78.49;101298.80;108529;1282;23822;-74
2021/11/24 01:49:38;;;;;;;36.80;33.40;;;;;;;5.83;78.37;101297.30;108450;1282;22429;-74
2021/11/24 01:52:08;;;;;;;35.30;31.90;;;;;;;5.83;78.44;101288.60;108480;1281;23710;-74
2021/11/24 01:54:38;;;;;;;36.10;32.70;;;;;;;5.83;78.43;101292.94;108515;1275;23577;-74
2021/11/24 01:57:08;;;;;;;35.00;31.60;;;;;;;5.84;78.44;101293.19;108913;1275;22984;-74
2021/11/24 01:59:48;;;;;;;36.70;33.30;;;;;;;5.84;78.34;101292.85;108348;1279;23593;-74
2021/11/24 02:02:17;;;;;;;33.70;30.50;;;;;;;5.83;78.27;101292.03;108481;1282;22300;-74
2021/11/24 02:04:47;;;;;;;36.10;32.40;;;;;;;5.84;78.44;101284.83;108447;1282;22034;-74
2021/11/24 02:07:16;;;;;;;33.80;30.50;;;;;;;5.85;78.38;101284.23;108425;1282;23173;-74
2021/11/24 02:09:48;;;;;;;33.10;29.70;;;;;;;5.87;78.39;101286.73;108439;1282;22040;-75
2021/11/24 02:12:19;;;;;;;32.90;29.90;;;;;;;5.87;78.36;101285.13;108570;1282;22796;-74
2021/11/24 02:14:48;;;;;;;30.30;27.30;;;;;;;5.86;78.30;101282.56;108481;1282;22113;-74
2021/11/24 02:17:17;;;;;;;32.00;28.60;;;;;;;5.85;78.28;101280.38;108658;1275;23696;-74
2021/11/24 02:19:46;;;;;;;33.00;29.80;;;;;;;5.86;78.35;101280.10;108831;1275;23682;-74
2021/11/24 02:22:16;;;;;;;29.80;27.10;;;;;;;5.86;78.24;101274.50;108747;1278;23162;-74
2021/11/24 02:24:45;;;;;;;32.10;28.90;;;;;;;5.84;78.21;101271.36;108923;1275;24328;-74
2021/11/24 02:27:16;;;;;;;29.80;26.80;;;;;;;5.83;78.23;101273.54;108877;1275;23042;-74
2021/11/24 02:29:45;;;;;;;29.90;27.10;;;;;;;5.83;78.23;101271.11;108854;1275;21969;-74
2021/11/24 02:32:17;;;;;;;29.90;27.10;;;;;;;5.82;78.28;101269.03;108991;1275;21997;-74
2021/11/24 02:34:46;;;;;;;28.30;25.80;;;;;;;5.82;78.21;101269.95;109072;1275;21968;-73
2021/11/24 02:37:15;;;;;;;30.90;27.90;;;;;;;5.81;78.25;101270.90;109135;1274;21989;-73
2021/11/24 02:39:49;;;;;;;30.40;27.10;;;;;;;5.80;78.22;101269.95;108905;1275;22032;-73
2021/11/24 02:42:18;;;;;;;28.90;26.10;;;;;;;5.79;78.26;101263.91;109194;1275;22014;-73
2021/11/24 02:44:47;;;;;;;30.60;27.70;;;;;;;5.77;78.33;101267.04;108875;1275;23666;-73
2021/11/24 02:47:21;;;;;;;29.70;26.70;;;;;;;5.78;78.39;101267.13;109086;1275;23720;-73
2021/11/24 02:49:54;;;;;;;30.60;27.50;;;;;;;5.78;78.29;101262.73;108899;1275;22107;-73
2021/11/24 02:52:23;;;;;;;31.70;28.30;;;;;;;5.76;78.40;101259.73;109136;1275;22827;-73
2021/11/24 02:55:04;;;;;;;29.80;27.00;;;;;;;5.77;78.47;101254.29;108875;1275;21977;-73
2021/11/24 02:57:37;;;;;;;30.60;27.60;;;;;;;5.78;78.56;101252.61;109073;1275;23704;-74
2021/11/24 03:00:12;;;;;;;33.60;30.20;;;;;;;5.79;78.34;101254.45;108895;1275;21979;-73
2021/11/24 03:02:45;;;;;;;39.60;35.50;;;;;;;5.78;78.37;101254.90;108867;1275;21991;-73
2021/11/24 03:05:19;;;;;;;39.30;35.10;;;;;;;5.77;78.42;101252.14;108830;1275;23026;-73
2021/11/24 03:07:50;;;;;;;41.50;34.90;;;;;;;5.79;78.49;101248.70;109138;1275;21995;-73
2021/11/24 03:10:20;;;;;;;36.50;32.60;;;;;;;5.78;78.33;101241.77;108940;1275;22110;-73
2021/11/24 03:12:49;;;;;;;34.50;30.90;;;;;;;5.74;78.25;101239.98;108895;1275;21970;-73
2021/11/24 03:15:18;;;;;;;33.90;30.50;;;;;;;5.72;78.43;101239.58;108466;1280;21972;-73
2021/11/24 03:17:47;;;;;;;31.80;28.60;;;;;;;5.74;78.57;101238.38;108529;1281;23688;-73
2021/11/24 03:20:17;;;;;;;33.60;30.30;;;;;;;5.78;78.66;101237.16;108026;1288;23691;-73
2021/11/24 03:22:46;;;;;;;33.90;30.50;;;;;;;5.81;78.57;101238.40;108295;1288;22021;-73
2021/11/24 03:25:15;;;;;;;33.30;29.90;;;;;;;5.82;78.47;101237.08;107937;1291;22760;-73
2021/11/24 03:27:45;;;;;;;31.60;28.50;;;;;;;5.82;78.51;101240.92;107713;1291;22364;-73
2021/11/24 03:30:24;;;;;;;34.00;30.50;;;;;;;5.85;78.61;101243.84;107707;1291;22053;-74
2021/11/24 03:32:58;;;;;;;32.70;29.50;;;;;;;5.86;78.49;101246.04;107405;1295;22031;-74
2021/11/24 03:35:28;;;;;;;;;;;;;;;5.86;78.50;101245.34;107687;1294;22026;-74
2021/11/24 03:38:02;;;;;;;31.70;28.60;;;;;;;5.78;78.41;101242.96;107689;1288;22471;-74
2021/11/24 03:40:35;;;;;;;34.50;31.10;;;;;;;5.76;78.41;101244.73;107948;1290;22044;-74
2021/11/24 03:43:05;;;;;;;32.90;29.70;;;;;;;5.77;78.56;101240.32;108141;1281;22002;-74
2021/11/24 03:45:38;;;;;;;30.20;27.30;;;;;;;5.80;78.60;101242.83;108504;1281;21986;-74
2021/11/24 03:48:10;;;;;;;34.20;30.80;;;;;;;5.81;78.46;101240.44;108485;1282;21999;-73
2021/11/24 03:50:40;;;;;;;32.60;29.40;;;;;;;5.83;78.49;101236.63;108613;1275;22004;-74
2021/11/24 03:53:09;;;;;;;33.80;30.40;;;;;;;5.86;78.45;101229.66;108892;1275;22005;-73
2021/11/24 03:55:38;;;;;;;32.20;28.70;;;;;;;5.83;78.18;101224.27;108885;1275;23672;-74
2021/11/24 03:58:08;;;;;;;32.00;28.80;;;;;;;5.78;78.24;101214.13;108936;1275;21988;-74
2021/11/24 04:00:37;;;;;;;31.90;28.80;;;;;;;5.75;78.24;101208.61;108910;1275;21972;-74
2021/11/24 04:03:06;;;;;;;31.00;27.80;;;;;;;5.72;78.22;101207.48;108915;1275;23570;-74
2021/11/24 04:05:39;;;;;;;31.10;27.90;;;;;;;5.69;78.32;101210.42;108848;1275;23615;-74
2021/11/24 04:08:08;;;;;;;32.00;29.10;;;;;;;5.70;78.44;101209.55;108924;1275;23730;-74
2021/11/24 04:10:43;;;;;;;31.30;28.20;;;;;;;5.71;78.50;101205.38;108463;1282;22158;-73
2021/11/24 04:13:15;;;;;;;31.60;28.00;;;;;;;5.70;78.36;101207.79;108109;1288;23704;-74
2021/11/24 04:15:44;;;;;;;;;;;;;;;5.70;78.46;101209.99;108044;1288;22039;-74
2021/11/24 04:18:23;;;;;;;29.70;26.80;;;;;;;5.64;78.65;101215.66;108173;1288;23706;-74
2021/11/24 04:20:55;;;;;;;31.90;28.60;;;;;;;5.66;78.70;101214.86;107979;1288;23677;-74
2021/11/24 04:23:26;;;;;;;30.70;27.70;;;;;;;5.69;78.76;101217.09;107990;1291;22009;-73
2021/11/24 04:26:03;;;;;;;32.30;29.20;;;;;;;5.73;78.70;101220.81;107996;1291;23612;-73
2021/11/24 04:28:39;;;;;;;33.30;29.80;;;;;;;5.73;78.43;101216.45;107984;1290;21990;-73
2021/11/24 04:31:11;;;;;;;34.20;30.90;;;;;;;5.73;78.55;101216.27;108081;1285;23850;-73
2021/11/24 04:33:43;;;;;;;32.80;29.40;;;;;;;5.76;78.56;101213.07;108381;1285;22483;-73
2021/11/24 04:36:15;;;;;;;33.20;29.80;;;;;;;5.78;78.69;101213.61;108253;1285;22022;-73
2021/11/24 04:38:44;;;;;;;34.90;31.20;;;;;;;5.80;78.68;101216.95;107988;1291;22166;-74
2021/11/24 04:41:16;;;;;;;32.90;29.40;;;;;;;5.83;78.62;101219.73;107946;1290;23701;-73
2021/11/24 04:43:49;;;;;;;;;;;;;;;5.85;78.55;101222.31;107769;1286;22025;-73
2021/11/24 04:46:18;;;;;;;;;;;;;;;5.78;78.42;101219.94;108369;1285;22239;-73
2021/11/24 04:48:51;;;;;;;31.30;27.80;;;;;;;5.67;78.56;101216.39;108360;1285;23613;-74
2021/11/24 04:51:23;;;;;;;31.30;28.00;;;;;;;5.67;78.63;101219.52;107873;1291;22098;-73
2021/11/24 04:53:52;;;;;;;33.40;29.30;;;;;;;5.71;78.65;101220.14;107817;1288;22548;-73
2021/11/24 04:56:24;;;;;;;31.90;28.50;;;;;;;5.75;78.63;101217.02;108097;1281;22011;-73
2021/11/24 04:59:01;;;;;;;36.20;32.20;;;;;;;5.77;78.49;101212.98;108481;1282;23100;-73
2021/11/24 05:01:33;;;;;;;36.10;31.90;;;;;;;5.76;78.18;101205.22;108531;1282;22670;-74
2021/11/24 05:04:03;;;;;;;34.70;31.00;;;;;;;5.75;78.18;101204.08;108456;1281;22012;-74
2021/11/24 05:06:37;;;;;;;33.60;30.20;;;;;;;5.73;77.93;101200.88;108558;1281;22031;-74
2021/11/24 05:09:07;;;;;;;33.10;29.60;;;;;;;5.74;78.11;101201.00;108414;1282;22093;-73
2021/11/24 05:11:40;;;;;;;33.10;29.70;;;;;;;5.77;78.14;101201.84;108458;1281;22261;-73
2021/11/24 05:14:18;;;;;;;31.80;28.50;;;;;;;5.79;78.18;101202.34;108044;1288;22756;-75
2021/11/24 05:16:49;;;;;;;31.50;28.50;;;;;;;5.81;78.06;101201.99;108341;1287;22020;-74
2021/11/24 05:19:21;;;;;;;31.90;28.70;;;;;;;5.81;78.09;101201.83;108302;1287;22000;-73
2021/11/24 05:21:53;;;;;;;33.70;30.40;;;;;;;5.83;78.15;101200.69;107681;1294;22006;-73
2021/11/24 05:24:22;;;;;;;31.40;28.30;;;;;;;5.84;78.05;101202.17;107455;1298;23061;-75
2021/11/24 05:26:54;;;;;;;33.00;29.40;;;;;;;5.85;78.00;101204.90;107448;1294;22138;-73
2021/11/24 05:29:27;;;;;;;30.30;27.50;;;;;;;5.85;78.10;101202.95;107939;1291;23617;-74
2021/11/24 05:32:03;;;;;;;31.60;28.40;;;;;;;5.85;77.96;101203.64;107676;1291;22019;-74
2021/11/24 05:34:38;;;;;;;30.20;27.00;;;;;;;5.86;78.04;101204.09;107927;1291;22079;-74
2021/11/24 05:37:11;;;;;;;30.30;27.10;;;;;;;5.88;78.02;101205.48;107887;1294;22000;-74
2021/11/24 05:39:47;;;;;;;31.90;28.80;;;;;;;5.88;77.93;101205.86;107905;1291;22473;-76
2021/11/24 05:42:24;;;;;;;30.40;27.50;;;;;;;5.88;78.04;101203.02;108054;1286;23051;-74
2021/11/24 05:45:16;;;;;;;35.70;31.90;;;;;;;5.90;78.06;101203.63;108277;1286;22040;-74
2021/11/24 05:47:58;;;;;;;33.60;30.30;;;;;;;5.91;78.01;101204.78;108638;1279;22279;-75
2021/11/24 05:50:46;;;;;;;29.50;26.60;;;;;;;5.89;77.99;101200.86;108802;1275;23598;-73
2021/11/24 05:53:19;;;;;;;30.40;27.00;;;;;;;5.85;77.81;101196.98;109111;1275;22028;-74
2021/11/24 05:55:50;;;;;;;30.60;27.40;;;;;;;5.81;77.78;101197.63;108660;1280;23142;-74
2021/11/24 05:58:21;;;;;;;30.70;27.50;;;;;;;5.78;78.00;101200.34;108474;1281;23688;-74
2021/11/24 06:01:03;;;;;;;32.40;29.00;;;;;;;5.75;78.02;101199.16;108358;1280;21985;-74
2021/11/24 06:03:35;;;;;;;30.20;26.80;;;;;;;5.73;78.12;101202.13;108423;1283;23041;-75
2021/11/24 06:06:04;;;;;;;27.10;24.50;;;;;;;5.71;78.27;101206.26;108354;1284;22041;-75
2021/11/24 06:08:38;;;;;;;26.80;24.20;;;;;;;5.69;78.28;101205.92;108461;1283;22035;-74
2021/11/24 06:11:12;;;;;;;26.50;23.70;;;;;;;5.65;78.41;101205.67;108502;1283;23586;-74
2021/11/24 06:13:45;;;;;;;;;;;;;;;5.63;78.51;101208.65;108210;1282;23607;-75
2021/11/24 06:16:21;;;;;;;31.30;28.00;;;;;;;5.55;78.78;101202.57;108331;1281;22010;-75
2021/11/24 06:18:51;;;;;;;33.90;30.40;;;;;;;5.56;78.84;101197.77;108455;1288;22203;-75
2021/11/24 06:21:26;;;;;;;35.20;31.60;;;;;;;5.59;79.09;101203.98;107812;1294;22049;-75
2021/11/24 06:23:56;;;;;;;33.20;29.90;;;;;;;5.65;79.33;101206.91;107697;1293;21995;-75
2021/11/24 06:26:28;;;;;;;34.00;30.50;;;;;;;5.70;79.33;101201.30;107738;1294;22023;-75
2021/11/24 06:28:59;;;;;;;34.40;30.90;;;;;;;5.73;79.11;101200.39;107425;1294;23076;-75
2021/11/24 06:31:29;;;;;;;32.70;29.40;;;;;;;5.72;79.04;101199.26;107759;1287;23039;-75
2021/11/24 06:34:01;;;;;;;37.40;33.50;;;;;;;5.72;79.18;101205.15;108118;1286;23748;-75
2021/11/24 06:37:05;;;;;;;33.40;30.10;;;;;;;5.75;79.33;101206.14;108331;1286;22981;-75
2021/11/24 06:39:37;;;;;;;33.80;30.30;;;;;;;5.78;79.53;101208.04;108521;1281;22150;-75
2021/11/24 06:42:11;;;;;;;34.80;31.50;;;;;;;5.81;79.49;101208.64;108563;1281;173071;-75
2021/11/24 06:44:47;;;;;;;36.30;32.70;;;;;;;5.83;79.35;101208.31;108802;1276;21996;-74
2021/11/24 06:47:17;;;;;;;35.80;32.10;;;;;;;5.83;79.21;101206.82;108560;1281;21990;-74
2021/11/24 06:49:47;;;;;;;36.50;33.00;;;;;;;5.84;79.54;101212.26;108655;1281;22029;-74
2021/11/24 06:52:16;;;;;;;35.60;32.10;;;;;;;5.90;79.70;101212.84;108443;1281;24387;-74
2021/11/24 06:54:49;;;;;;;36.10;32.40;;;;;;;5.93;79.40;101210.39;108458;1281;22806;-75
2021/11/24 06:57:20;;;;;;;35.70;32.00;;;;;;;5.94;79.45;101209.59;108485;1281;21996;-75
2021/11/24 06:59:49;;;;;;;33.90;30.50;;;;;;;5.95;79.28;101211.17;108385;1284;24396;-74
2021/11/24 07:02:18;;;;;;;30.30;27.20;;;;;;;5.94;79.31;101211.38;108044;1289;22046;-74
2021/11/24 07:04:49;;;;;;;33.40;30.10;;;;;;;5.91;79.25;101210.73;108012;1288;23689;-75
2021/11/24 07:07:23;;;;;;;;;;;;;;;5.91;79.38;101213.85;107704;1294;22744;-74
2021/11/24 07:09:52;;;;;;;33.90;30.60;;;;;;;5.85;79.60;101218.81;107894;1292;21997;-75
2021/11/24 07:12:24;;;;;;;31.90;28.70;;;;;;;5.85;79.46;101218.52;107588;1294;22079;-75
2021/11/24 07:15:01;;;;;;;33.30;30.00;;;;;;;5.86;79.59;101216.30;107579;1292;23111;-75
2021/11/24 07:17:35;;;;;;;30.20;27.20;;;;;;;5.91;79.67;101219.78;107801;1287;22023;-75
2021/11/24 07:20:08;;;;;;;34.20;28.90;;;;;;;5.95;79.61;101221.77;108180;1283;22050;-76
2021/11/24 07:22:38;;;;;;;36.30;32.30;;;;;;;5.95;79.42;101222.88;108483;1281;22231;-75
2021/11/24 07:25:13;;;;;;;34.50;30.90;;;;;;;5.97;79.60;101223.97;108603;1278;23046;-75
2021/11/24 07:27:48;;;;;;;35.50;32.10;;;;;;;5.99;79.65;101227.08;108751;1277;23058;-75
2021/11/24 07:30:26;;;;;;;35.90;32.30;;;;;;;6.02;79.65;101224.76;108398;1285;23102;-75
2021/11/24 07:32:58;;;;;;;33.40;29.90;;;;;;;6.08;79.83;101224.48;108212;1285;22323;-75
2021/11/24 07:35:32;;;;;;;33.70;30.10;;;;;;;6.14;79.69;101225.27;108428;1285;21999;-75
2021/11/24 07:38:03;;;;;;;34.10;30.70;;;;;;;6.15;79.59;101229.05;108403;1283;22033;-75
2021/11/24 07:40:33;;;;;;;35.80;32.20;;;;;;;6.20;79.72;101227.45;108369;1280;23656;-75
2021/11/24 07:43:03;;;;;;;34.60;31.10;;;;;;;6.23;79.58;101219.69;108335;1285;21993;-75
2021/11/24 07:45:34;;;;;;;32.80;29.60;;;;;;;6.25;79.46;101217.91;108293;1285;22011;-74
2021/11/24 07:48:14;;;;;;;33.40;30.00;;;;;;;6.28;79.50;101219.27;108538;1278;23141;-74
2021/11/24 07:50:44;;;;;;;32.60;29.00;;;;;;;6.33;79.61;101221.33;109061;1276;23627;-75
2021/11/24 07:53:19;;;;;;;38.10;34.20;;;;;;;6.38;79.43;101216.91;108532;1282;22041;-75
2021/11/24 07:55:51;;;;;;;35.90;32.30;;;;;;;6.41;79.31;101217.06;108425;1282;22003;-75
2021/11/24 07:58:20;;;;;;;36.70;32.90;;;;;;;6.44;79.37;101215.42;108436;1283;22004;-76
2021/11/24 08:00:52;;;;;;;35.20;31.40;;;;;;;6.50;79.50;101212.28;108231;1286;22083;-76
2021/11/24 08:03:23;;;;;;;34.20;30.80;;;;;;;6.54;79.22;101208.98;108364;1286;21992;-74
2021/11/24 08:05:53;;;;;;;33.80;30.30;;;;;;;6.58;79.21;101205.36;108313;1286;23722;-74
2021/11/24 08:08:22;;;;;;;35.80;32.10;;;;;;;6.62;79.08;101206.29;108007;1291;25174;-75
2021/11/24 08:10:55;;;;;;;36.10;32.40;;;;;;;6.66;79.07;101207.92;107915;1288;22775;-74
2021/11/24 08:13:27;;;;;;;43.00;38.40;;;;;;;6.68;78.90;101203.39;108149;1287;22030;-75
2021/11/24 08:15:57;;;;;;;40.00;34.00;;;;;;;6.68;78.70;101202.98;108334;1287;22267;-79
2021/11/24 08:18:29;;;;;;;;;;;;;;;6.69;78.72;101202.39;108201;1284;21965;-76
2021/11/24 08:21:02;;;;;;;37.00;33.40;;;;;;;6.65;78.91;101207.15;108441;1283;22002;-77
2021/11/24 08:23:34;;;;;;;38.10;32.50;;;;;;;6.70;79.00;101212.34;108380;1283;23582;-77
2021/11/24 08:26:04;;;;;;;37.10;33.20;;;;;;;6.75;78.73;101211.70;108378;1283;23049;-76
2021/11/24 08:28:33;;;;;;;36.90;33.20;;;;;;;6.79;78.61;101203.88;108422;1283;22019;-76
2021/11/24 08:31:04;;;;;;;39.80;35.80;;;;;;;6.82;78.34;101207.49;108397;1283;21995;-76
2021/11/24 08:33:33;;;;;;;38.50;34.60;;;;;;;6.80;78.14;101212.73;108597;1278;21985;-76
2021/11/24 08:36:06;;;;;;;39.60;35.60;;;;;;;6.86;78.65;101214.02;108932;1275;23608;-76
2021/11/24 08:38:35;;;;;;;39.10;35.20;;;;;;;6.95;78.64;101215.03;108947;1274;22988;-76
2021/11/24 08:41:09;;;;;;;34.90;31.50;;;;;;;6.97;78.07;101212.42;108415;1283;22006;-79
2021/11/24 08:43:46;;;;;;;39.70;35.80;;;;;;;6.95;77.75;101211.39;108503;1282;23033;-79
2021/11/24 08:46:16;;;;;;;37.50;33.80;;;;;;;6.93;77.68;101212.27;108499;1282;22036;-78
2021/11/24 08:48:46;;;;;;;44.30;39.50;;;;;;;6.90;77.48;101212.11;108281;1288;22498;-78
2021/11/24 08:51:16;;;;;;;41.80;37.60;;;;;;;6.88;77.60;101209.79;108121;1288;23706;-78
2021/11/24 08:53:48;;;;;;;42.00;37.80;;;;;;;6.87;77.59;101206.77;108194;1288;23517;-77
2021/11/24 08:56:17;;;;;;;54.30;48.90;;;;;;;6.86;77.51;101207.73;108053;1289;21999;-78
2021/11/24 08:58:46;;;;;;;41.80;37.80;;;;;;;6.81;77.38;101206.54;108170;1283;22235;-77
2021/11/24 09:01:16;;;;;;;46.30;41.80;;;;;;;6.76;77.40;101212.85;108284;1284;22115;-79
2021/11/24 09:03:48;;;;;;;41.90;37.50;;;;;;;6.71;77.40;101218.54;108317;1288;23055;-79
2021/11/24 09:06:37;;;;;;;41.50;37.30;;;;;;;6.65;77.56;101212.56;108065;1282;22016;-79
2021/11/24 09:09:11;;;;;;;40.30;36.00;;;;;;;6.63;77.82;101202.75;108255;1288;21995;-79
2021/11/24 09:11:43;;;;;;;37.20;33.80;;;;;;;6.64;78.02;101204.23;108284;1286;21999;-81
2021/11/24 09:14:19;;;;;;;41.10;37.10;;;;;;;6.64;78.01;101201.24;108272;1286;22208;-80
2021/11/24 09:17:16;;;;;;;45.00;40.50;;;;;;;6.69;78.33;101196.47;108454;1286;23057;-80
2021/11/24 09:20:07;;;;;;;35.80;32.30;;;;;;;6.73;78.20;101201.20;108337;1280;23674;-80
2021/11/24 09:22:43;;;;;;;40.40;36.30;;;;;;;6.76;78.35;101200.60;108626;1282;23742;-79
2021/11/24 09:25:24;;;;;;;35.20;31.50;;;;;;;6.81;78.33;101199.88;108621;1282;23648;-80
2021/11/24 09:27:59;;;;;;;36.10;32.20;;;;;;;6.83;78.16;101201.13;108800;1277;23704;-79
2021/11/24 09:30:34;;;;;;;36.10;32.40;;;;;;;6.82;78.00;101198.91;109195;1275;22027;-80
2021/11/24 09:33:04;;;;;;;41.20;37.00;;;;;;;6.85;78.32;101200.42;109109;1275;23796;-81
2021/11/24 09:35:42;;;;;;;39.30;35.10;;;;;;;6.91;78.29;101198.16;108703;1281;22754;-80
2021/11/24 09:38:14;;;;;;;51.50;46.40;;;;;;;6.93;78.05;101198.79;108848;1280;22528;-79
2021/11/24 09:40:48;;;;;;;42.30;37.90;;;;;;;6.97;78.30;101195.61;108323;1286;21998;-78
2021/11/24 09:43:19;;;;;;;36.70;33.10;;;;;;;7.03;78.39;101191.75;108394;1287;23634;-80
2021/11/24 09:45:50;;;;;;;36.50;32.80;;;;;;;7.12;78.51;101190.74;108463;1286;22028;-79
2021/11/24 09:48:20;;;;;;;39.20;35.50;;;;;;;7.18;78.37;101189.34;108479;1287;23051;-78
2021/11/24 09:50:52;;;;;;;36.90;33.50;;;;;;;7.24;78.50;101185.57;108328;1286;22033;-79
2021/11/24 09:53:24;;;;;;;34.90;31.30;;;;;;;7.28;78.14;101181.84;108391;1282;21993;-78
2021/11/24 09:55:54;;;;;;;32.80;29.40;;;;;;;7.32;78.13;101183.88;108619;1282;23775;-79
2021/11/24 09:58:23;;;;;;;34.80;31.50;;;;;;;7.36;78.16;101181.73;108665;1278;21994;-80
2021/11/24 10:00:58;;;;;;;31.60;28.70;;;;;;;7.40;78.05;101178.76;108961;1275;21986;-80
2021/11/24 10:03:27;;;;;;;38.10;34.40;;;;;;;7.50;78.44;101179.41;109118;1272;21987;-80
2021/11/24 10:06:02;;;;;;;33.00;29.90;;;;;;;7.62;78.55;101181.70;108986;1274;22866;-80
2021/11/24 10:08:52;;;;;;;33.60;30.30;;;;;;;7.75;78.65;101183.45;109253;1274;21973;-80
2021/11/24 10:11:27;;;;;;;31.60;28.50;;;;;;;7.84;78.18;101183.06;108581;1281;22013;-80
2021/11/24 10:14:00;;;;;;;30.60;27.80;;;;;;;7.89;77.93;101181.88;108255;1289;22018;-79
2021/11/24 10:16:35;;;;;;;31.60;28.50;;;;;;;7.95;77.80;101180.84;108419;1289;23123;-78
2021/11/24 10:19:05;;;;;;;;;;;;;;;7.99;77.44;101176.77;108319;1288;21986;-80
2021/11/24 10:21:51;;;;;;;33.00;29.80;;;;;;;7.98;77.59;101172.63;108233;1289;23061;-79
2021/11/24 10:24:31;;;;;;;32.70;29.50;;;;;;;8.06;77.45;101169.77;108256;1288;23126;-80
2021/11/24 10:27:09;;;;;;;36.50;32.90;;;;;;;8.12;77.07;101166.22;108582;1286;23777;-79
2021/11/24 10:30:04;;;;;;;33.90;30.30;;;;;;;8.20;76.94;101167.52;108452;1283;23652;-81
2021/11/24 10:32:34;;;;;;;33.10;30.00;;;;;;;8.25;76.72;101167.58;108736;1276;21988;-80
2021/11/24 10:35:05;;;;;;;33.80;30.40;;;;;;;8.29;76.36;101170.35;108884;1275;23602;-79
2021/11/24 10:37:40;;;;;;;32.20;28.90;;;;;;;8.34;76.17;101171.52;109223;1275;21987;-79
2021/11/24 10:40:12;;;;;;;34.50;30.80;;;;;;;8.39;75.90;101169.19;108993;1277;23625;-80
2021/11/24 10:42:47;;;;;;;34.70;31.30;;;;;;;8.42;75.64;101167.30;109257;1273;22037;-78
2021/11/24 10:45:27;;;;;;;31.00;28.00;;;;;;;8.46;75.45;101168.73;108870;1276;23684;-78
2021/11/24 10:48:05;;;;;;;29.60;26.80;;;;;;;8.44;74.92;101162.05;108640;1281;22137;-79
2021/11/24 10:51:29;;;;;;;29.90;26.90;;;;;;;8.44;74.92;101155.94;108627;1279;21992;-78
2021/11/24 10:54:18;;;;;;;28.20;25.40;;;;;;;8.45;74.80;101155.66;108426;1286;23719;-79
2021/11/24 10:57:07;;;;;;;27.40;24.80;;;;;;;8.47;74.73;101157.23;108329;1285;24324;-78
2021/11/24 10:59:49;;;;;;;26.70;24.10;;;;;;;8.47;74.27;101154.64;108139;1286;23742;-78
2021/11/24 11:02:34;;;;;;;25.80;23.10;;;;;;;8.38;73.92;101153.25;108328;1285;21992;-79
2021/11/24 11:05:19;;;;;;;25.60;23.20;;;;;;;8.33;73.89;101149.81;108094;1286;23703;-78
2021/11/24 11:07:56;;;;;;;23.90;21.70;;;;;;;8.27;73.57;101151.24;108420;1283;23653;-79
2021/11/24 11:11:04;;;;;;;23.10;20.80;;;;;;;8.15;73.26;101147.15;108670;1282;22250;-80
2021/11/24 11:13:36;;;;;;;25.10;22.40;;;;;;;8.09;73.39;101147.89;108685;1281;22032;-78
2021/11/24 11:16:13;;;;;;;30.50;25.70;;;;;;;8.04;73.39;101143.28;108286;1283;22119;-77
2021/11/24 11:18:53;;;;;;;30.20;27.00;;;;;;;8.03;73.70;101143.30;108437;1278;21991;-78
2021/11/24 11:21:44;;;;;;;32.50;28.40;;;;;;;8.04;73.62;101138.13;108894;1278;23672;-77
2021/11/24 11:24:22;;;;;;;32.40;29.00;;;;;;;8.04;73.50;101143.42;108970;1278;21980;-78
2021/11/24 11:27:06;;;;;;;33.70;30.30;;;;;;;8.01;73.44;101133.52;109096;1276;21985;-77
2021/11/24 11:29:59;;;;;;;29.60;26.70;;;;;;;7.97;73.36;101127.71;109125;1277;21989;-78
2021/11/24 11:32:36;;;;;;;32.20;29.20;;;;;;;7.97;73.65;101121.88;108649;1280;23048;-78
2021/11/24 11:35:18;;;;;;;29.70;26.80;;;;;;;7.99;73.64;101120.80;108714;1280;21996;-78
2021/11/24 11:38:07;;;;;;;27.90;24.50;;;;;;;8.00;73.63;101115.81;108701;1281;22968;-78
2021/11/24 11:41:02;;;;;;;31.10;25.70;;;;;;;8.01;73.62;101114.19;108641;1282;22144;-79